createdAt,value
2019-03-03T00:00:22.230Z,98347.03
2019-03-03T00:02:50.585Z,98345.64
2019-03-03T00:05:18.953Z,98351.98
2019-03-03T00:07:47.325Z,98353.23
2019-03-03T00:10:16.024Z,98348.06
2019-03-03T00:12:44.329Z,98345.97
2019-03-03T00:15:13.271Z,98348.20
2019-03-03T00:17:41.653Z,98347.66
2019-03-03T00:20:14.643Z,98344.41
2019-03-03T00:22:43.012Z,98354.80
2019-03-03T00:25:12.980Z,98358.12
2019-03-03T00:27:41.269Z,98359.23
2019-03-03T00:30:14.949Z,98360.82
2019-03-03T00:32:43.275Z,98364.19
2019-03-03T00:35:11.925Z,98361.04
2019-03-03T00:37:58.334Z,98365.42
2019-03-03T00:40:28.772Z,98363.78
2019-03-03T00:43:04.303Z,98358.53
2019-03-03T00:45:46.628Z,98354.81
2019-03-03T00:48:22.529Z,98346.59
2019-03-03T00:51:01.622Z,98354.59
2019-03-03T00:53:38.628Z,98339.30
2019-03-03T00:56:14.487Z,98339.30
2019-03-03T00:58:44.695Z,98348.66
2019-03-03T01:01:20.759Z,98348.51
2019-03-03T01:03:53.685Z,98358.78
2019-03-03T01:06:35.302Z,98358.28
2019-03-03T01:09:11.482Z,98361.61
2019-03-03T01:11:47.629Z,98353.95
2019-03-03T01:14:17.642Z,98355.70
2019-03-03T01:16:53.158Z,98365.16
2019-03-03T01:19:38.314Z,98359.73
2019-03-03T01:22:08.325Z,98359.73
2019-03-03T01:24:38.269Z,98356.84
2019-03-03T01:27:06.588Z,98355.20
2019-03-03T01:29:35.612Z,98350.28
2019-03-03T01:32:04.074Z,98350.28
2019-03-03T01:34:32.778Z,98350.70
2019-03-03T01:37:01.114Z,98348.70
2019-03-03T01:39:29.429Z,98345.98
2019-03-03T01:41:58.029Z,98333.39
2019-03-03T01:44:26.716Z,98342.08
2019-03-03T01:46:55.011Z,98339.98
2019-03-03T01:49:23.336Z,98331.55
2019-03-03T01:51:51.718Z,98329.48
2019-03-03T01:54:20.040Z,98332.25
2019-03-03T01:56:48.353Z,98330.49
2019-03-03T01:59:16.695Z,98330.25
2019-03-03T02:01:45.387Z,98327.33
2019-03-03T02:04:13.687Z,98322.05
2019-03-03T02:06:42.019Z,98317.87
2019-03-03T02:09:11.897Z,98315.67
2019-03-03T02:11:40.884Z,98309.61
2019-03-03T02:14:09.194Z,98306.77
2019-03-03T02:16:37.599Z,98308.53
2019-03-03T02:19:05.901Z,98316.20
2019-03-03T02:21:34.220Z,98315.59
2019-03-03T02:24:02.523Z,98310.05
2019-03-03T02:26:31.149Z,98309.95
2019-03-03T02:28:59.476Z,98308.20
2019-03-03T02:31:27.785Z,98312.28
2019-03-03T02:33:56.108Z,98316.35
2019-03-03T02:36:24.478Z,98318.89
2019-03-03T02:38:52.799Z,98312.36
2019-03-03T02:41:21.103Z,98313.81
2019-03-03T02:43:50.195Z,98313.94
2019-03-03T02:46:18.566Z,98316.76
2019-03-03T02:48:46.935Z,98318.22
2019-03-03T02:51:15.589Z,98308.42
2019-03-03T02:53:43.882Z,98306.81
2019-03-03T02:56:12.275Z,98304.25
2019-03-03T02:58:40.647Z,98305.10
2019-03-03T03:01:11.052Z,98306.31
2019-03-03T03:03:39.428Z,98309.75
2019-03-03T03:06:12.381Z,98309.55
2019-03-03T03:08:45.110Z,98307.59
2019-03-03T03:11:21.262Z,98317.83
2019-03-03T03:14:03.032Z,98321.46
2019-03-03T03:16:33.008Z,98321.60
2019-03-03T03:19:08.692Z,98324.12
2019-03-03T03:21:44.784Z,98327.58
2019-03-03T03:24:20.633Z,98330.03
2019-03-03T03:26:53.329Z,98328.15
2019-03-03T03:29:28.957Z,98335.05
2019-03-03T03:32:01.487Z,98326.00
2019-03-03T03:34:34.015Z,98319.02
2019-03-03T03:37:06.717Z,98324.52
2019-03-03T03:39:42.828Z,98320.98
2019-03-03T03:42:15.489Z,98319.01
2019-03-03T03:44:51.166Z,98326.77
2019-03-03T03:47:37.434Z,98289.72
2019-03-03T03:50:15.786Z,98311.22
2019-03-03T03:52:54.223Z,98319.16
2019-03-03T03:55:27.126Z,98312.48
2019-03-03T03:57:57.071Z,98314.09
2019-03-03T04:00:30.473Z,98305.64
2019-03-03T04:03:17.185Z,98314.77
2019-03-03T04:05:59.136Z,98309.36
2019-03-03T04:08:32.080Z,98307.30
2019-03-03T04:11:16.664Z,98306.50
2019-03-03T04:13:52.803Z,98308.40
2019-03-03T04:16:22.751Z,98307.81
2019-03-03T04:19:08.768Z,98307.25
2019-03-03T04:21:44.409Z,98307.38
2019-03-03T04:24:17.101Z,98310.45
2019-03-03T04:26:49.654Z,98311.13
2019-03-03T04:29:37.428Z,98307.48
2019-03-03T04:32:25.647Z,98310.09
2019-03-03T04:34:55.940Z,98306.61
2019-03-03T04:37:40.656Z,98305.95
2019-03-03T04:40:16.322Z,98306.54
2019-03-03T04:42:46.264Z,98306.95
2019-03-03T04:45:16.309Z,98301.83
2019-03-03T04:47:55.214Z,98310.02
2019-03-03T04:50:27.864Z,98306.34
2019-03-03T04:53:04.272Z,98309.96
2019-03-03T04:55:40.207Z,98308.00
2019-03-03T04:58:19.064Z,98308.40
2019-03-03T05:00:57.990Z,98309.11
2019-03-03T05:03:27.929Z,98317.50
2019-03-03T05:06:14.396Z,98313.86
2019-03-03T05:08:47.207Z,98318.45
2019-03-03T05:11:31.669Z,98312.28
2019-03-03T05:14:01.615Z,98316.20
2019-03-03T05:16:34.666Z,98308.52
2019-03-03T05:19:04.705Z,98315.48
2019-03-03T05:21:33.275Z,98316.10
2019-03-03T05:24:01.597Z,98317.02
2019-03-03T05:26:30.249Z,98322.63
2019-03-03T05:28:58.639Z,98322.08
2019-03-03T05:31:26.940Z,98325.15
2019-03-03T05:33:55.258Z,98328.84
2019-03-03T05:36:23.555Z,98334.13
2019-03-03T05:38:51.940Z,98331.68
2019-03-03T05:41:20.242Z,98331.36
2019-03-03T05:43:48.575Z,98325.94
2019-03-03T05:46:16.877Z,98328.47
2019-03-03T05:48:45.176Z,98327.23
2019-03-03T05:51:13.856Z,98324.93
2019-03-03T05:53:42.158Z,98330.84
2019-03-03T05:56:10.479Z,98329.34
2019-03-03T05:58:38.777Z,98327.77
2019-03-03T06:01:07.097Z,98325.19
2019-03-03T06:03:35.394Z,98331.36
2019-03-03T06:06:03.757Z,98328.00
2019-03-03T06:08:32.080Z,98337.96
2019-03-03T06:11:00.370Z,98341.03
2019-03-03T06:13:28.683Z,98329.27
2019-03-03T06:15:56.985Z,98330.48
2019-03-03T06:18:25.320Z,98334.23
2019-03-03T06:20:53.694Z,98334.77
2019-03-03T06:23:21.989Z,98337.67
2019-03-03T06:25:50.305Z,98342.92
2019-03-03T06:28:18.605Z,98347.18
2019-03-03T06:30:46.937Z,98345.09
2019-03-03T06:33:15.312Z,98349.95
2019-03-03T06:35:43.704Z,98351.82
2019-03-03T06:38:11.999Z,98353.48
2019-03-03T06:40:40.309Z,98350.02
2019-03-03T06:43:08.952Z,98351.75
2019-03-03T06:45:37.253Z,98345.67
2019-03-03T06:48:06.441Z,98350.64
2019-03-03T06:50:34.748Z,98348.81
2019-03-03T06:53:03.145Z,98333.69
2019-03-03T06:55:31.796Z,98338.58
2019-03-03T06:58:00.132Z,98339.34
2019-03-03T07:00:28.554Z,98333.77
2019-03-03T07:02:56.859Z,98333.78
2019-03-03T07:05:26.069Z,98331.75
2019-03-03T07:07:55.020Z,98340.34
2019-03-03T07:10:23.337Z,98340.09
2019-03-03T07:12:51.647Z,98337.17
2019-03-03T07:15:20.075Z,98336.09
2019-03-03T07:17:48.398Z,98333.56
2019-03-03T07:20:16.857Z,98333.20
2019-03-03T07:22:45.243Z,98340.34
2019-03-03T07:25:14.380Z,98337.14
2019-03-03T07:27:43.055Z,98334.25
2019-03-03T07:30:14.085Z,98331.97
2019-03-03T07:32:44.090Z,98341.38
2019-03-03T07:35:12.474Z,98340.17
2019-03-03T07:37:40.840Z,98342.94
2019-03-03T07:40:09.227Z,98340.77
2019-03-03T07:42:38.024Z,98346.03
2019-03-03T07:45:12.390Z,98343.59
2019-03-03T07:47:40.687Z,98351.42
2019-03-03T07:50:09.289Z,98351.55
2019-03-03T07:52:37.682Z,98353.06
2019-03-03T07:55:08.626Z,98362.52
2019-03-03T07:57:37.319Z,98349.58
2019-03-03T08:00:11.242Z,98362.50
2019-03-03T08:02:39.550Z,98356.71
2019-03-03T08:05:09.388Z,98354.36
2019-03-03T08:07:37.838Z,98351.85
2019-03-03T08:10:13.670Z,98360.56
2019-03-03T08:12:42.039Z,98357.73
2019-03-03T08:15:15.614Z,98353.52
2019-03-03T08:17:43.912Z,98355.34
2019-03-03T08:20:13.941Z,98352.30
2019-03-03T08:22:42.412Z,98336.66
2019-03-03T08:25:11.906Z,98336.11
2019-03-03T08:27:40.510Z,98336.30
2019-03-03T08:30:16.692Z,98335.27
2019-03-03T08:32:45.076Z,98325.90
2019-03-03T08:35:22.350Z,98329.88
2019-03-03T08:37:51.031Z,98326.25
2019-03-03T08:40:19.332Z,98316.27
2019-03-03T08:42:57.808Z,98315.34
2019-03-03T08:45:36.644Z,98317.63
2019-03-03T08:48:07.301Z,98315.56
2019-03-03T08:50:45.812Z,98312.58
2019-03-03T08:53:18.550Z,98310.60
2019-03-03T08:56:04.954Z,98315.09
2019-03-03T08:58:40.443Z,98309.27
2019-03-03T09:01:16.917Z,98305.27
2019-03-03T09:03:49.840Z,98302.95
2019-03-03T09:06:22.247Z,98299.14
2019-03-03T09:08:52.211Z,98293.53
2019-03-03T09:11:31.189Z,98298.01
2019-03-03T09:14:04.537Z,98294.06
2019-03-03T09:16:50.716Z,98290.41
2019-03-03T09:19:20.661Z,98295.06
2019-03-03T09:21:56.471Z,98300.74
2019-03-03T09:24:26.643Z,98299.63
2019-03-03T09:27:05.832Z,98301.55
2019-03-03T09:29:36.096Z,98302.06
2019-03-03T09:32:08.777Z,98287.02
2019-03-03T09:34:55.304Z,98292.25
2019-03-03T09:37:37.597Z,98266.66
2019-03-03T09:40:16.183Z,98289.07
2019-03-03T09:42:54.927Z,98296.67
2019-03-03T09:45:24.911Z,98283.01
2019-03-03T09:47:54.852Z,98291.14
2019-03-03T09:50:24.850Z,98290.38
2019-03-03T09:52:54.874Z,98282.36
2019-03-03T09:55:30.690Z,98282.73
2019-03-03T09:58:00.647Z,98294.52
2019-03-03T10:00:48.952Z,98282.84
2019-03-03T10:03:24.926Z,98283.78
2019-03-03T10:05:54.932Z,98270.80
2019-03-03T10:08:25.063Z,98272.44
2019-03-03T10:11:10.223Z,98272.66
2019-03-03T10:13:46.088Z,98279.62
2019-03-03T10:16:33.086Z,98264.30
2019-03-03T10:19:09.049Z,98259.98
2019-03-03T10:21:41.873Z,98256.27
2019-03-03T10:24:17.782Z,98258.67
2019-03-03T10:26:59.521Z,98257.00
2019-03-03T10:29:45.784Z,98250.42
2019-03-03T10:32:32.113Z,98252.81
2019-03-03T10:35:04.898Z,98252.52
2019-03-03T10:37:43.686Z,98252.31
2019-03-03T10:40:16.462Z,98236.62
2019-03-03T10:42:52.275Z,98250.28
2019-03-03T10:45:22.245Z,98244.40
2019-03-03T10:47:52.208Z,98246.09
2019-03-03T10:50:28.442Z,98231.06
2019-03-03T10:53:01.006Z,98238.88
2019-03-03T10:55:36.848Z,98248.59
2019-03-03T10:58:09.671Z,98229.87
2019-03-03T11:00:40.003Z,98234.42
2019-03-03T11:03:18.716Z,98217.66
2019-03-03T11:05:54.250Z,98214.89
2019-03-03T11:08:24.262Z,98219.55
2019-03-03T11:11:06.377Z,98224.34
2019-03-03T11:13:36.615Z,98228.05
2019-03-03T11:16:22.904Z,98222.03
2019-03-03T11:19:08.686Z,98211.01
2019-03-03T11:21:44.659Z,98216.44
2019-03-03T11:24:14.602Z,98198.09
2019-03-03T11:26:47.583Z,98210.52
2019-03-03T11:29:17.518Z,98199.51
2019-03-03T11:31:47.491Z,98177.82
2019-03-03T11:34:29.845Z,98186.93
2019-03-03T11:37:05.988Z,98173.13
2019-03-03T11:39:52.343Z,98171.08
2019-03-03T11:42:37.391Z,98186.08
2019-03-03T11:45:16.406Z,98172.25
2019-03-03T11:47:47.759Z,98164.13
2019-03-03T11:50:17.836Z,98159.47
2019-03-03T11:52:56.522Z,98153.30
2019-03-03T11:55:26.479Z,98164.19
2019-03-03T11:58:11.465Z,98146.17
2019-03-03T12:00:41.724Z,98154.50
2019-03-03T12:03:26.946Z,98145.84
2019-03-03T12:05:56.980Z,98147.09
2019-03-03T12:08:36.069Z,98133.80
2019-03-03T12:11:09.344Z,98151.82
2019-03-03T12:13:57.610Z,98138.44
2019-03-03T12:16:30.687Z,98125.14
2019-03-03T12:19:01.744Z,98124.72
2019-03-03T12:21:46.728Z,98117.61
2019-03-03T12:24:22.809Z,98123.55
2019-03-03T12:27:11.964Z,98107.19
2019-03-03T12:29:57.980Z,98112.67
2019-03-03T12:32:30.706Z,98111.96
2019-03-03T12:35:03.761Z,98118.39
2019-03-03T12:37:33.706Z,98105.43
2019-03-03T12:40:06.105Z,98103.30
2019-03-03T12:42:51.984Z,98094.78
2019-03-03T12:45:34.600Z,98096.08
2019-03-03T12:48:22.720Z,98078.13
2019-03-03T12:51:01.482Z,98077.02
2019-03-03T12:53:31.423Z,98063.61
2019-03-03T12:56:01.383Z,98063.45
2019-03-03T12:58:33.788Z,98065.81
2019-03-03T13:01:19.990Z,98051.14
2019-03-03T13:03:55.468Z,98046.53
2019-03-03T13:06:34.509Z,98046.31
2019-03-03T13:09:07.451Z,98045.64
2019-03-03T13:11:55.796Z,98043.67
2019-03-03T13:14:26.034Z,98038.98
2019-03-03T13:17:01.981Z,98018.51
2019-03-03T13:19:46.868Z,98026.59
2019-03-03T13:22:28.542Z,98010.65
2019-03-03T13:25:04.664Z,98019.53
2019-03-03T13:27:34.606Z,98005.73
2019-03-03T13:30:08.076Z,98020.63
2019-03-03T13:32:54.209Z,98021.34
2019-03-03T13:35:27.235Z,98019.09
2019-03-03T13:38:12.266Z,98019.09
2019-03-03T13:40:42.618Z,98013.00
2019-03-03T13:43:10.998Z,98000.33
2019-03-03T13:45:39.303Z,97991.02
2019-03-03T13:48:07.975Z,98007.20
2019-03-03T13:50:36.270Z,98018.23
2019-03-03T13:53:04.657Z,97999.80
2019-03-03T13:55:33.017Z,97995.88
2019-03-03T13:58:01.710Z,97994.39
2019-03-03T14:00:30.166Z,97979.28
2019-03-03T14:02:58.678Z,97986.44
2019-03-03T14:05:27.037Z,97981.35
2019-03-03T14:07:55.538Z,97984.02
2019-03-03T14:10:24.281Z,97990.91
2019-03-03T14:12:52.671Z,97980.09
2019-03-03T14:15:21.154Z,97972.34
2019-03-03T14:17:49.565Z,97984.38
2019-03-03T14:20:22.766Z,97978.20
2019-03-03T14:22:53.507Z,97978.47
2019-03-03T14:25:21.975Z,97970.12
2019-03-03T14:27:50.374Z,97965.70
2019-03-03T14:30:21.381Z,97964.36
2019-03-03T14:32:49.838Z,97969.70
2019-03-03T14:35:18.593Z,97955.70
2019-03-03T14:37:47.285Z,97949.91
2019-03-03T14:40:18.889Z,97959.51
2019-03-03T14:42:47.190Z,97953.42
2019-03-03T14:45:17.542Z,97949.89
2019-03-03T14:47:45.933Z,97945.70
2019-03-03T14:50:17.441Z,97947.30
2019-03-03T14:52:47.882Z,97945.06
2019-03-03T14:55:20.644Z,97942.13
2019-03-03T14:57:48.980Z,97933.91
2019-03-03T15:00:25.175Z,97943.69
2019-03-03T15:02:54.035Z,97935.23
2019-03-03T15:05:22.519Z,97926.59
2019-03-03T15:07:51.006Z,97932.54
2019-03-03T15:10:19.366Z,97926.27
2019-03-03T15:12:49.010Z,97924.52
2019-03-03T15:15:22.682Z,97924.31
2019-03-03T15:17:50.998Z,97918.04
2019-03-03T15:20:19.560Z,97911.55
2019-03-03T15:22:47.900Z,97913.01
2019-03-03T15:25:16.366Z,97907.79
2019-03-03T15:27:45.327Z,97904.17
2019-03-03T15:30:21.588Z,97897.50
2019-03-03T15:32:50.021Z,97889.69
2019-03-03T15:35:18.876Z,97886.49
2019-03-03T15:37:47.515Z,97881.75
2019-03-03T15:40:27.821Z,97875.99
2019-03-03T15:42:56.108Z,97878.83
2019-03-03T15:45:26.940Z,97873.05
2019-03-03T15:47:55.228Z,97869.02
2019-03-03T15:50:23.599Z,97863.48
2019-03-03T15:52:52.292Z,97855.60
2019-03-03T15:55:26.422Z,97858.58
2019-03-03T15:57:54.918Z,97851.05
2019-03-03T16:00:26.155Z,97856.19
2019-03-03T16:02:54.636Z,97857.93
2019-03-03T16:05:23.002Z,97841.36
2019-03-03T16:07:51.328Z,97844.41
2019-03-03T16:10:22.790Z,97844.48
2019-03-03T16:12:51.109Z,97843.42
2019-03-03T16:15:19.633Z,97841.70
2019-03-03T16:17:47.997Z,97842.20
2019-03-03T16:20:18.743Z,97839.62
2019-03-03T16:22:47.104Z,97841.12
2019-03-03T16:25:18.225Z,97834.10
2019-03-03T16:27:46.597Z,97827.55
2019-03-03T16:30:19.968Z,97827.59
2019-03-03T16:32:48.538Z,97821.64
2019-03-03T16:35:17.110Z,97822.90
2019-03-03T16:37:46.007Z,97822.10
2019-03-03T16:40:39.544Z,97820.30
2019-03-03T16:43:04.928Z,97821.83
2019-03-03T16:45:33.391Z,97820.47
2019-03-03T16:48:01.890Z,97820.86
2019-03-03T16:50:30.281Z,97815.37
2019-03-03T16:52:58.667Z,97820.80
2019-03-03T16:55:27.019Z,97812.92
2019-03-03T16:57:55.469Z,97818.60
2019-03-03T17:00:25.433Z,97816.44
2019-03-03T17:02:54.781Z,97799.12
2019-03-03T17:05:25.236Z,97811.72
2019-03-03T17:07:53.622Z,97817.79
2019-03-03T17:10:22.003Z,97814.67
2019-03-03T17:12:50.389Z,97814.67
2019-03-03T17:15:27.464Z,97816.73
2019-03-03T17:17:55.840Z,97814.63
2019-03-03T17:20:24.133Z,97814.43
2019-03-03T17:22:52.516Z,97813.92
2019-03-03T17:25:26.127Z,97810.78
2019-03-03T17:27:54.924Z,97809.13
2019-03-03T17:30:25.839Z,97801.84
2019-03-03T17:32:54.244Z,97793.97
2019-03-03T17:35:22.633Z,97806.08
2019-03-03T17:37:51.000Z,97800.09
2019-03-03T17:40:23.941Z,97801.52
2019-03-03T17:42:52.302Z,97790.36
2019-03-03T17:45:22.183Z,97801.47
2019-03-03T17:47:50.936Z,97798.17
2019-03-03T17:50:27.818Z,97810.62
2019-03-03T17:52:56.773Z,97801.91
2019-03-03T17:55:25.584Z,97799.18
2019-03-03T17:57:53.973Z,97804.80
2019-03-03T18:00:26.015Z,97801.48
2019-03-03T18:02:54.378Z,97803.30
2019-03-03T18:05:22.847Z,97800.32
2019-03-03T18:07:51.468Z,97798.00
2019-03-03T18:10:19.866Z,97797.66
2019-03-03T18:12:48.234Z,97802.19
2019-03-03T18:15:17.702Z,97798.72
2019-03-03T18:17:46.069Z,97799.81
2019-03-03T18:20:16.890Z,97799.34
2019-03-03T18:22:45.260Z,97794.70
2019-03-03T18:25:16.268Z,97800.20
2019-03-03T18:27:45.040Z,97795.66
2019-03-03T18:30:25.548Z,97801.06
2019-03-03T18:32:53.931Z,97807.66
2019-03-03T18:35:22.303Z,97800.70
2019-03-03T18:37:50.699Z,97801.78
2019-03-03T18:40:24.469Z,97798.79
2019-03-03T18:42:52.876Z,97798.55
2019-03-03T18:45:22.866Z,97794.98
2019-03-03T18:47:51.332Z,97792.45
2019-03-03T18:50:24.849Z,97786.59
2019-03-03T18:52:53.178Z,97792.45
2019-03-03T18:55:21.921Z,97794.20
2019-03-03T18:57:50.303Z,97790.62
2019-03-03T19:00:26.691Z,97784.05
2019-03-03T19:02:55.057Z,97781.91
2019-03-03T19:05:23.552Z,97784.42
2019-03-03T19:07:52.293Z,97783.35
2019-03-03T19:10:25.719Z,97785.84
2019-03-03T19:12:54.165Z,97790.37
2019-03-03T19:15:22.665Z,97791.30
2019-03-03T19:17:51.040Z,97780.62
2019-03-03T19:20:21.555Z,97776.45
2019-03-03T19:22:51.428Z,97777.28
2019-03-03T19:25:20.678Z,97771.66
2019-03-03T19:27:49.465Z,97761.92
2019-03-03T19:30:26.453Z,97764.86
2019-03-03T19:33:03.947Z,97756.84
2019-03-03T19:35:32.338Z,97756.11
2019-03-03T19:38:00.695Z,97751.08
2019-03-03T19:40:29.459Z,97752.26
2019-03-03T19:42:58.430Z,97748.08
2019-03-03T19:45:38.563Z,97748.08
2019-03-03T19:48:08.029Z,97748.35
2019-03-03T19:50:36.414Z,97743.30
2019-03-03T19:53:05.620Z,97744.69
2019-03-03T19:55:34.093Z,97735.84
2019-03-03T19:58:02.947Z,97740.62
2019-03-03T20:00:41.728Z,97737.15
2019-03-03T20:03:10.901Z,97735.28
2019-03-03T20:05:39.281Z,97733.92
2019-03-03T20:08:07.673Z,97736.13
2019-03-03T20:10:36.171Z,97730.61
2019-03-03T20:13:05.298Z,97731.33
2019-03-03T20:15:33.764Z,97723.35
2019-03-03T20:18:02.223Z,97728.47
2019-03-03T20:20:30.619Z,97729.78
2019-03-03T20:22:59.605Z,97716.98
2019-03-03T20:25:28.356Z,97713.73
2019-03-03T20:27:56.737Z,97709.66
2019-03-03T20:30:25.733Z,97707.78
2019-03-03T20:32:54.133Z,97704.42
2019-03-03T20:35:22.601Z,97702.02
2019-03-03T20:37:51.031Z,97709.30
2019-03-03T20:40:24.927Z,97704.17
2019-03-03T20:42:54.590Z,97699.09
2019-03-03T20:45:33.398Z,97703.77
2019-03-03T20:48:02.095Z,97698.36
2019-03-03T20:50:30.393Z,97694.77
2019-03-03T20:52:58.694Z,97692.54
2019-03-03T20:55:29.330Z,97685.28
2019-03-03T20:57:57.808Z,97690.34
2019-03-03T21:00:30.815Z,97685.78
2019-03-03T21:02:59.469Z,97687.73
2019-03-03T21:05:27.987Z,97684.22
2019-03-03T21:07:56.359Z,97695.16
2019-03-03T21:10:31.601Z,97688.09
2019-03-03T21:12:59.985Z,97681.44
2019-03-03T21:15:28.456Z,97679.91
2019-03-03T21:17:56.781Z,97675.73
2019-03-03T21:20:25.232Z,97667.33
2019-03-03T21:22:53.847Z,97667.16
2019-03-03T21:25:22.329Z,97665.80
2019-03-03T21:27:50.623Z,97671.64
2019-03-03T21:30:21.310Z,97667.07
2019-03-03T21:32:50.087Z,97668.19
2019-03-03T21:35:18.496Z,97672.36
2019-03-03T21:37:46.903Z,97670.02
2019-03-03T21:40:22.334Z,97667.75
2019-03-03T21:42:50.667Z,97667.40
2019-03-03T21:45:21.774Z,97665.16
2019-03-03T21:47:50.138Z,97655.42
2019-03-03T21:50:23.858Z,97655.51
2019-03-03T21:52:52.206Z,97651.15
2019-03-03T21:55:20.643Z,97647.07
2019-03-03T21:57:49.090Z,97643.34
2019-03-03T22:00:32.317Z,97635.59
2019-03-03T22:03:00.686Z,97644.33
2019-03-03T22:05:29.199Z,97636.69
2019-03-03T22:07:57.784Z,97640.57
2019-03-03T22:10:33.431Z,97631.59
2019-03-03T22:13:04.779Z,97636.89
2019-03-03T22:15:33.386Z,97639.67
2019-03-03T22:18:01.912Z,97640.14
2019-03-03T22:20:30.207Z,97617.41
2019-03-03T22:22:58.859Z,97640.13
2019-03-03T22:25:27.228Z,97644.42
2019-03-03T22:27:55.550Z,97648.36
2019-03-03T22:30:23.921Z,97648.04
2019-03-03T22:32:52.294Z,97648.04
2019-03-03T22:35:21.036Z,97643.97
2019-03-03T22:37:49.608Z,97647.04
2019-03-03T22:40:20.618Z,97634.10
2019-03-03T22:42:49.071Z,97626.69
2019-03-03T22:45:18.363Z,97625.36
2019-03-03T22:47:46.711Z,97614.44
2019-03-03T22:50:16.439Z,97612.56
2019-03-03T22:52:45.068Z,97628.25
2019-03-03T22:55:17.400Z,97617.26
2019-03-03T22:57:46.098Z,97607.09
2019-03-03T23:00:17.569Z,97610.17
2019-03-03T23:02:45.950Z,97610.00
2019-03-03T23:05:19.901Z,97608.72
2019-03-03T23:07:51.699Z,97599.48
2019-03-03T23:10:41.503Z,97592.87
2019-03-03T23:13:25.406Z,97593.36
2019-03-03T23:16:11.935Z,97585.78
2019-03-03T23:18:52.205Z,97591.08
2019-03-03T23:21:29.598Z,97603.48
2019-03-03T23:24:13.225Z,97600.50
2019-03-03T23:26:41.522Z,97588.20
2019-03-03T23:29:10.204Z,97589.80
2019-03-03T23:31:38.570Z,97587.94
2019-03-03T23:34:06.923Z,97598.14
2019-03-03T23:36:35.308Z,97589.87
2019-03-03T23:39:05.573Z,97588.23
2019-03-03T23:41:33.877Z,97583.92
2019-03-03T23:44:02.194Z,97589.80
2019-03-03T23:46:30.669Z,97596.42
2019-03-03T23:48:58.991Z,97588.50
2019-03-03T23:51:27.293Z,97581.69
2019-03-03T23:53:55.626Z,97563.63
2019-03-03T23:56:23.953Z,97566.44
2019-03-03T23:58:52.333Z,97554.89
